Kitty Hawk, NC (27949)

1:46 PM EDT on September 05, 2015 (GMT -0400)
Southern Shores,NC | | Change Station
CLOSE
Current Station
Personal Weather Station
Location: Kitty Hawk, NC
Elevation: 43 ft
Nearby Weather Stations
Active Advisory: Beach Hazard Statement

Elev 43 ft 36.14 °N, 75.74 °W | Updated 11 minutes ago

Clear
Clear
86.5 °F
Feels Like 97 °F
N
4.0
Wind Variable Wind from North
Gusts 11.0 mph

Today
High -- | Low -- °F
--% Chance of Precip.
Yesterday
High -- | Low -- °F
Precip. -- in
6:37 AM 7:25 PM
Waning Gibbous, 46% visible
Pressure 30.09 in
Visibility 7.0 miles
Clouds Overcast 1600 ft
Heat Index 97 °F
Dew Point 77 °F
Humidity 72%
Rainfall 0.00 in
Snow Depth Not available.
UV 3 out of 12
Pollen 8.70 out of 12
Air Quality Not available.
Flu Activity Not available.
METAR KFFA 051735Z AUTO 04010G19KT 020V080 7SM OVC016 29/23 A3009 RMK AO2 T02850226
Pressure 30.09 in
Visibility 7.0 miles
Clouds Overcast 1600 ft
Heat Index 97 °F
Dew Point 77 °F
Humidity 72%
Rainfall 0.00 in
Snow Depth Not available.
UV 3 out of 12
Pollen 8.70 out of 12
Air Quality Not available.
Flu Activity Not available.
METAR KFFA 051735Z AUTO 04010G19KT 020V080 7SM OVC016 29/23 A3009 RMK AO2 T02850226

10-Day Weather Forecast

×

Almanac

Astronomy

Sep. 05, 2015 Rise Set
Actual Time
Civil Twilight
Nautical Twilight
Astronomical Twilight
Moon
Length of Visible Light
Length of Day
Tomorrow will be .
, % of the Moon is Illuminated

Today's Extremes

State Highs State Lows

Community

WunderPhotos

Upload Photos

1,852,508 photos uploaded!

WunderBlogs® & News

Nearby

Air Quality

  Air Quality AQ Index Pollutant
Not available.

Snow Depth

Station Depth Elevation

Earthquake Activity

City Distance Mag. Time & Date
Minimum magnitude displayed is 2.5.

Coastal Water Temperatures

Place Temperature

Stations

Nearby Weather Stations

Station Location Temp. Windchill Dew Point Humidity Wind Precip. Elev Updated Type
                   
Beach Hazard Statement
Statement as of 11:52 AM EDT on September 05, 2015

... Beach hazards statement in effect until 8 PM EDT this
evening...

The National Weather Service in Newport/Morehead City has issued
a beach hazards statement... which is in effect until 8 PM EDT
this evening.

* Hazards... dangerous shore break

* location... north of Cape Hatteras

* timing and tides... through this evening

* surf height... 4 to 6 feet

Precautionary/preparedness actions...

Shore break occurs when waves break directly on the beach. The
most common injuries with strong shore break are neck and back
injuries... which most often occur when the powerful surf throws a
swimmer or surfer head first into the bottom. It is extremely
important to protect your head and neck whenever you are in
breaking waves by keeping your hands in front of you at all times.